Time;durP1;ratioP1;P1;durP2;ratioP2;P2;SDS_P1;SDS_P2;PMS_P1;PMS_P2;Temp;Humidity;BMP_temperature;BMP_pressure;BME280_temperature;BME280_humidity;BME280_pressure;Samples;Min_cycle;Max_cycle;Signal;HPM_P1;HPM_P2
2022/01/12 00:01:47;;;;;;;4.82;1.60;;;;;;;;;;4895768;29;20052;-76
2022/01/12 00:04:16;;;;;;;5.50;1.88;;;;;;;;;;4902589;29;20056;-76
2022/01/12 00:06:46;;;;;;;6.67;2.00;;;;;;;;;;4900297;29;20040;-76
2022/01/12 00:09:15;;;;;;;6.00;1.65;;;;;;;;;;4904480;29;20048;-76
2022/01/12 00:11:46;;;;;;;6.43;1.92;;;;;;;;;;4907044;29;20135;-76
2022/01/12 00:14:15;;;;;;;5.10;2.03;;;;;;;;;;4900029;29;20174;-75
2022/01/12 00:16:47;;;;;;;3.60;1.50;;;;;;;;;;4906291;29;20077;-75
2022/01/12 00:19:16;;;;;;;4.73;1.40;;;;;;;;;;4899636;29;20555;-75
2022/01/12 00:21:45;;;;;;;3.75;1.52;;;;;;;;;;4898865;29;20039;-75
2022/01/12 00:24:18;;;;;;;3.65;1.55;;;;;;;;;;4900212;29;20049;-75
2022/01/12 00:35:29;;;;;;;3.97;1.63;;;;;;;;;;4895869;29;20048;-76
2022/01/12 00:37:58;;;;;;;4.50;1.70;;;;;;;;;;4887300;29;20049;-75
2022/01/12 00:40:28;;;;;;;4.55;1.30;;;;;;;;;;4895055;29;20131;-75
2022/01/12 00:42:57;;;;;;;6.35;1.60;;;;;;;;;;4901005;29;20486;-76
2022/01/12 00:45:26;;;;;;;3.67;1.47;;;;;;;;;;4899799;29;20060;-76
2022/01/12 00:47:55;;;;;;;4.10;1.45;;;;;;;;;;4897015;29;20414;-75
2022/01/12 00:50:24;;;;;;;3.00;1.38;;;;;;;;;;4892242;29;20052;-76
2022/01/12 00:52:53;;;;;;;4.28;1.35;;;;;;;;;;4902113;29;20495;-76
2022/01/12 00:55:22;;;;;;;2.13;0.90;;;;;;;;;;4910874;29;20064;-75
2022/01/12 00:57:51;;;;;;;3.93;1.53;;;;;;;;;;4910547;29;20056;-76
2022/01/12 01:00:23;;;;;;;2.92;1.02;;;;;;;;;;4913678;29;20063;-75
2022/01/12 01:02:53;;;;;;;6.60;1.63;;;;;;;;;;4913145;29;20538;-76
2022/01/12 01:05:25;;;;;;;9.82;1.67;;;;;;;;;;4898977;29;20048;-76
2022/01/12 01:08:18;;;;;;;3.38;1.33;;;;;;;;;;4900233;29;20414;-76
2022/01/12 01:10:51;;;;;;;2.47;0.90;;;;;;;;;;4897053;29;20055;-76
2022/01/12 01:13:26;;;;;;;3.70;1.20;;;;;;;;;;4893300;29;20115;-75
2022/01/12 01:16:07;;;;;;;4.50;1.73;;;;;;;;;;4914591;29;20100;-76
2022/01/12 01:27:05;;;;;;;3.45;1.20;;;;;;;;;;4915941;29;20115;-76
2022/01/12 01:29:34;;;;;;;3.92;1.20;;;;;;;;;;4908495;29;20071;-75
2022/01/12 01:32:06;;;;;;;2.67;1.13;;;;;;;;;;4913002;29;20554;-75
2022/01/12 01:34:42;;;;;;;3.40;1.10;;;;;;;;;;4908556;29;20115;-76
2022/01/12 01:37:11;;;;;;;4.50;1.20;;;;;;;;;;4914215;29;20100;-76
2022/01/12 01:39:41;;;;;;;3.58;1.63;;;;;;;;;;4914198;29;20062;-75
2022/01/12 01:42:18;;;;;;;3.00;1.27;;;;;;;;;;4914808;29;20103;-76
2022/01/12 01:53:20;;;;;;;3.40;1.27;;;;;;;;;;4917820;29;20051;-76
2022/01/12 01:55:51;;;;;;;3.33;1.20;;;;;;;;;;4915946;29;20050;-75
2022/01/12 01:58:21;;;;;;;2.72;0.85;;;;;;;;;;4912693;29;20047;-75
2022/01/12 02:00:51;;;;;;;2.03;0.82;;;;;;;;;;4898096;29;20131;-76
2022/01/12 02:03:27;;;;;;;3.57;1.40;;;;;;;;;;4916822;29;20059;-76
2022/01/12 02:06:00;;;;;;;3.90;1.80;;;;;;;;;;4901040;29;20051;-75
2022/01/12 02:08:29;;;;;;;5.45;1.58;;;;;;;;;;4886315;29;20040;-76
2022/01/12 02:11:33;;;;;;;3.35;1.45;;;;;;;;;;4908653;29;20482;-76
2022/01/12 02:14:12;;;;;;;6.93;1.33;;;;;;;;;;4899611;29;20668;-75
2022/01/12 02:16:52;;;;;;;2.40;1.07;;;;;;;;;;4918881;29;20483;-75
2022/01/12 02:19:45;;;;;;;3.25;1.15;;;;;;;;;;4915184;29;20051;-76
2022/01/12 02:36:21;;;;;;;4.57;1.00;;;;;;;;;;4897781;29;20495;-76
2022/01/12 02:41:38;;;;;;;2.35;0.77;;;;;;;;;;4913826;29;20040;-76
2022/01/12 02:55:42;;;;;;;2.72;1.13;;;;;;;;;;4902742;29;20395;-76
2022/01/12 02:58:11;;;;;;;3.73;1.07;;;;;;;;;;4882094;29;20044;-75
2022/01/12 03:01:01;;;;;;;1.95;0.60;;;;;;;;;;4903068;29;20203;-75
2022/01/12 03:03:36;;;;;;;3.45;1.48;;;;;;;;;;4895094;29;20055;-76
2022/01/12 03:06:09;;;;;;;2.80;1.33;;;;;;;;;;4902943;29;20041;-76
2022/01/12 03:08:38;;;;;;;3.72;1.15;;;;;;;;;;4897589;29;20047;-75
2022/01/12 03:11:10;;;;;;;2.33;0.83;;;;;;;;;;4897450;29;20052;-75
2022/01/12 03:13:39;;;;;;;2.97;1.35;;;;;;;;;;4897092;29;20075;-75
2022/01/12 03:16:14;;;;;;;2.45;1.05;;;;;;;;;;4897525;29;20044;-75
2022/01/12 03:18:44;;;;;;;3.90;1.60;;;;;;;;;;4880849;29;20108;-75
2022/01/12 03:21:14;;;;;;;2.80;1.17;;;;;;;;;;4892951;29;20044;-75
2022/01/12 03:23:43;;;;;;;3.17;1.43;;;;;;;;;;4887895;29;20056;-75
2022/01/12 03:26:14;;;;;;;5.85;1.55;;;;;;;;;;4880362;29;20099;-75
2022/01/12 03:28:44;;;;;;;2.60;1.27;;;;;;;;;;4896678;29;20131;-75
2022/01/12 03:31:18;;;;;;;3.35;1.42;;;;;;;;;;4894367;29;20599;-75
2022/01/12 03:33:55;;;;;;;2.53;1.00;;;;;;;;;;4896068;29;20492;-75
2022/01/12 03:36:28;;;;;;;2.60;1.27;;;;;;;;;;4895198;29;20128;-75
2022/01/12 03:39:00;;;;;;;4.28;1.40;;;;;;;;;;4879279;29;20063;-76
2022/01/12 03:41:35;;;;;;;2.85;0.88;;;;;;;;;;4874962;29;21554;-76
2022/01/12 03:44:06;;;;;;;4.10;1.20;;;;;;;;;;4881536;29;20052;-75
2022/01/12 03:46:38;;;;;;;2.70;1.10;;;;;;;;;;4893466;29;20433;-75
2022/01/12 03:49:07;;;;;;;3.97;1.50;;;;;;;;;;4881718;29;20048;-76
2022/01/12 03:51:37;;;;;;;3.92;1.15;;;;;;;;;;4911060;29;20447;-76
2022/01/12 03:54:09;;;;;;;3.60;1.40;;;;;;;;;;4900324;29;20056;-76
2022/01/12 03:56:39;;;;;;;3.88;1.45;;;;;;;;;;4918217;29;20059;-76
2022/01/12 03:59:09;;;;;;;4.13;1.52;;;;;;;;;;4912051;29;20487;-75
2022/01/12 04:01:39;;;;;;;2.87;1.23;;;;;;;;;;4900105;29;20051;-76
2022/01/12 04:04:21;;;;;;;3.78;1.63;;;;;;;;;;4895265;29;20056;-76
2022/01/12 04:09:46;;;;;;;3.13;1.05;;;;;;;;;;4898214;29;20050;-76
2022/01/12 04:12:18;;;;;;;3.42;1.65;;;;;;;;;;4901671;29;20111;-76
2022/01/12 04:14:47;;;;;;;3.73;1.10;;;;;;;;;;4910904;29;20403;-75
2022/01/12 04:17:16;;;;;;;2.65;1.08;;;;;;;;;;4912659;29;20052;-76
2022/01/12 04:19:47;;;;;;;5.68;1.10;;;;;;;;;;4910929;29;20040;-75
2022/01/12 04:25:02;;;;;;;2.42;1.17;;;;;;;;;;4888907;29;20044;-75
2022/01/12 04:27:33;;;;;;;4.77;1.23;;;;;;;;;;4912027;29;20040;-75
2022/01/12 04:30:02;;;;;;;4.68;2.22;;;;;;;;;;4912524;29;20075;-75
2022/01/12 04:32:36;;;;;;;3.92;1.15;;;;;;;;;;4911673;29;20522;-76
2022/01/12 04:35:06;;;;;;;5.97;1.10;;;;;;;;;;4901044;29;20051;-75
2022/01/12 04:37:36;;;;;;;4.97;1.48;;;;;;;;;;4911589;29;20054;-75
2022/01/12 04:40:05;;;;;;;2.60;1.13;;;;;;;;;;4883924;29;20048;-75
2022/01/12 04:42:36;;;;;;;4.20;1.50;;;;;;;;;;4910964;29;20993;-76
2022/01/12 04:45:18;;;;;;;3.65;1.38;;;;;;;;;;4887778;29;20045;-75
2022/01/12 04:50:35;;;;;;;3.47;1.48;;;;;;;;;;4893719;29;20061;-76
2022/01/12 04:53:07;;;;;;;4.13;1.30;;;;;;;;;;4890877;29;20084;-75
2022/01/12 04:55:36;;;;;;;3.15;1.38;;;;;;;;;;4894952;29;20044;-75
2022/01/12 04:58:07;;;;;;;2.22;1.25;;;;;;;;;;4891983;29;20045;-75
2022/01/12 05:00:36;;;;;;;2.85;1.27;;;;;;;;;;4895805;29;20502;-75
2022/01/12 05:09:27;;;;;;;4.07;1.15;;;;;;;;;;4891906;29;20111;-75
2022/01/12 05:15:01;;;;;;;5.07;1.35;;;;;;;;;;4892728;29;20053;-75
2022/01/12 05:17:30;;;;;;;1.85;0.80;;;;;;;;;;4881041;29;20088;-75
2022/01/12 05:19:59;;;;;;;5.37;2.10;;;;;;;;;;4880996;29;20456;-76
2022/01/12 05:22:28;;;;;;;2.92;1.20;;;;;;;;;;4899078;29;20162;-75
2022/01/12 05:24:57;;;;;;;5.18;1.60;;;;;;;;;;4897112;29;20484;-75
2022/01/12 05:30:24;;;;;;;3.95;1.80;;;;;;;;;;4895418;29;20056;-75
2022/01/12 05:32:55;;;;;;;5.07;1.90;;;;;;;;;;4882947;29;20119;-75
2022/01/12 05:35:30;;;;;;;3.50;1.60;;;;;;;;;;4881409;29;20044;-75
2022/01/12 05:38:00;;;;;;;6.28;1.90;;;;;;;;;;4899594;29;20048;-75
2022/01/12 05:40:29;;;;;;;5.72;1.75;;;;;;;;;;4894540;29;20411;-75
2022/01/12 05:43:00;;;;;;;3.75;1.77;;;;;;;;;;4891792;29;20507;-75
2022/01/12 05:45:33;;;;;;;4.47;2.23;;;;;;;;;;4882276;29;20045;-77
2022/01/12 05:50:52;;;;;;;4.85;1.77;;;;;;;;;;4891227;29;20060;-76
2022/01/12 05:53:25;;;;;;;6.43;1.92;;;;;;;;;;4894464;29;20527;-76
2022/01/12 05:55:55;;;;;;;6.45;2.53;;;;;;;;;;4879959;29;20048;-77
2022/01/12 05:58:24;;;;;;;5.60;2.13;;;;;;;;;;4895805;29;20108;-77
2022/01/12 06:00:55;;;;;;;3.38;1.40;;;;;;;;;;4897134;29;20124;-78
2022/01/12 06:03:25;;;;;;;3.22;1.45;;;;;;;;;;4878439;29;20065;-76
2022/01/12 06:05:54;;;;;;;2.42;1.00;;;;;;;;;;4899594;29;20044;-78
2022/01/12 06:08:23;;;;;;;3.97;2.15;;;;;;;;;;4897319;29;20947;-77
2022/01/12 06:10:52;;;;;;;3.13;1.37;;;;;;;;;;4897962;29;21341;-76
2022/01/12 06:13:22;;;;;;;3.25;1.70;;;;;;;;;;4896414;29;20044;-75
2022/01/12 06:15:51;;;;;;;6.57;1.70;;;;;;;;;;4892353;29;20060;-78
2022/01/12 06:18:22;;;;;;;3.47;1.77;;;;;;;;;;4913617;29;20056;-75
2022/01/12 06:20:51;;;;;;;4.25;1.95;;;;;;;;;;4896580;29;20132;-75
2022/01/12 06:23:39;;;;;;;4.47;1.90;;;;;;;;;;4895393;29;20053;-74
2022/01/12 06:26:09;;;;;;;5.15;1.83;;;;;;;;;;4882802;29;20047;-79
2022/01/12 06:29:24;;;;;;;4.80;1.52;;;;;;;;;;4895541;29;20082;-81
2022/01/12 06:31:54;;;;;;;3.92;1.45;;;;;;;;;;4895105;29;20091;-76
2022/01/12 06:34:29;;;;;;;3.67;1.95;;;;;;;;;;4895941;29;20121;-76
2022/01/12 06:36:59;;;;;;;4.20;1.43;;;;;;;;;;4897069;29;20051;-76
2022/01/12 06:39:28;;;;;;;4.63;2.25;;;;;;;;;;4896245;29;20083;-77
2022/01/12 06:41:57;;;;;;;5.97;2.00;;;;;;;;;;4897150;29;20073;-77
2022/01/12 06:44:29;;;;;;;2.65;1.52;;;;;;;;;;4897381;29;20040;-77
2022/01/12 06:47:03;;;;;;;3.50;1.65;;;;;;;;;;4880703;29;20456;-77
2022/01/12 06:49:34;;;;;;;3.00;1.27;;;;;;;;;;4881622;29;20049;-76
2022/01/12 06:52:03;;;;;;;4.95;2.10;;;;;;;;;;4897441;29;20044;-76
2022/01/12 06:54:33;;;;;;;6.20;2.40;;;;;;;;;;4864823;29;20062;-76
2022/01/12 06:57:03;;;;;;;3.80;1.95;;;;;;;;;;4896059;29;20045;-77
2022/01/12 06:59:32;;;;;;;4.53;2.13;;;;;;;;;;4875918;29;20048;-76
2022/01/12 07:02:03;;;;;;;3.50;1.70;;;;;;;;;;4897113;29;20048;-77
2022/01/12 07:04:38;;;;;;;3.20;1.60;;;;;;;;;;4878399;29;20053;-77
2022/01/12 07:07:10;;;;;;;3.42;1.63;;;;;;;;;;4897846;29;20123;-77
2022/01/12 07:09:40;;;;;;;6.78;1.52;;;;;;;;;;4863760;29;20056;-77
2022/01/12 07:12:19;;;;;;;5.75;2.47;;;;;;;;;;4886116;29;20041;-77
2022/01/12 07:14:51;;;;;;;2.73;1.63;;;;;;;;;;4881899;29;20144;-77
2022/01/12 07:17:21;;;;;;;5.63;2.70;;;;;;;;;;4898333;29;20083;-77
2022/01/12 07:19:51;;;;;;;4.75;2.25;;;;;;;;;;4897710;29;20049;-76
2022/01/12 07:22:21;;;;;;;3.95;2.03;;;;;;;;;;4895113;29;20040;-76
2022/01/12 07:24:51;;;;;;;4.32;1.70;;;;;;;;;;4897858;29;20179;-78
2022/01/12 07:27:22;;;;;;;4.37;1.60;;;;;;;;;;4886399;29;20049;-77
2022/01/12 07:29:50;;;;;;;9.10;1.60;;;;;;;;;;4897723;29;20059;-77
2022/01/12 07:32:19;;;;;;;4.88;1.92;;;;;;;;;;4893525;29;20051;-77
2022/01/12 07:35:13;;;;;;;4.50;2.58;;;;;;;;;;4896198;29;20056;-77
2022/01/12 07:37:43;;;;;;;3.60;2.28;;;;;;;;;;4893634;29;20072;-77
2022/01/12 07:40:13;;;;;;;4.73;2.17;;;;;;;;;;4895943;29;20048;-77
2022/01/12 07:42:42;;;;;;;5.45;2.83;;;;;;;;;;4896489;29;20591;-77
2022/01/12 07:45:15;;;;;;;6.38;2.53;;;;;;;;;;4896217;29;20044;-77
2022/01/12 07:47:44;;;;;;;4.90;2.20;;;;;;;;;;4898102;29;20060;-77
2022/01/12 07:53:08;;;;;;;4.37;2.53;;;;;;;;;;4911915;29;20044;-77
2022/01/12 07:55:37;;;;;;;5.90;2.78;;;;;;;;;;4914147;29;20047;-76
2022/01/12 07:58:06;;;;;;;5.68;2.50;;;;;;;;;;4915618;29;20100;-77
2022/01/12 08:00:36;;;;;;;4.72;1.90;;;;;;;;;;4913372;29;20040;-77
2022/01/12 08:03:05;;;;;;;6.82;2.55;;;;;;;;;;4915442;29;20048;-77
2022/01/12 08:05:36;;;;;;;5.80;1.97;;;;;;;;;;4913550;29;20044;-77
2022/01/12 08:08:05;;;;;;;4.00;1.60;;;;;;;;;;4913710;29;20555;-77
2022/01/12 08:10:33;;;;;;;4.53;1.92;;;;;;;;;;4914646;29;20052;-77
2022/01/12 08:13:07;;;;;;;5.10;1.73;;;;;;;;;;4913457;29;20042;-77
2022/01/12 08:15:36;;;;;;;4.50;1.90;;;;;;;;;;4915775;29;20048;-77
2022/01/12 08:18:05;;;;;;;5.67;1.90;;;;;;;;;;4913721;29;20056;-77
2022/01/12 08:20:33;;;;;;;5.15;2.08;;;;;;;;;;4914391;29;20495;-77
2022/01/12 08:23:03;;;;;;;5.40;2.13;;;;;;;;;;4897563;29;20498;-77
2022/01/12 08:25:36;;;;;;;4.53;1.98;;;;;;;;;;4914363;29;20048;-77
2022/01/12 08:28:05;;;;;;;4.35;2.28;;;;;;;;;;4911975;29;20052;-77
2022/01/12 08:30:35;;;;;;;3.70;1.30;;;;;;;;;;4916202;29;20054;-77
2022/01/12 08:33:05;;;;;;;5.38;2.40;;;;;;;;;;4907616;29;20449;-77
2022/01/12 08:35:35;;;;;;;3.78;1.50;;;;;;;;;;4914349;29;20056;-77
2022/01/12 08:38:05;;;;;;;4.38;2.03;;;;;;;;;;4912571;29;20044;-77
2022/01/12 08:40:37;;;;;;;3.65;1.83;;;;;;;;;;4913463;29;20048;-77
2022/01/12 08:43:07;;;;;;;7.13;2.33;;;;;;;;;;4912428;29;20455;-77
2022/01/12 08:46:01;;;;;;;5.18;2.55;;;;;;;;;;4914508;29;20067;-77
2022/01/12 08:48:30;;;;;;;3.95;1.95;;;;;;;;;;4909317;29;20056;-76
2022/01/12 08:51:01;;;;;;;4.65;1.98;;;;;;;;;;4913480;29;20399;-77
2022/01/12 08:53:31;;;;;;;3.63;1.67;;;;;;;;;;4913706;29;20497;-77
2022/01/12 08:56:00;;;;;;;5.80;1.83;;;;;;;;;;4913633;29;20051;-77
2022/01/12 08:58:29;;;;;;;7.00;3.05;;;;;;;;;;4915334;29;20059;-77
2022/01/12 09:01:03;;;;;;;7.93;2.47;;;;;;;;;;4911237;29;20040;-77
2022/01/12 09:03:35;;;;;;;4.85;2.58;;;;;;;;;;4915113;29;20043;-77
2022/01/12 09:06:09;;;;;;;6.50;2.58;;;;;;;;;;4912801;29;20123;-77
2022/01/12 09:08:42;;;;;;;6.37;2.30;;;;;;;;;;4914085;29;20052;-77
2022/01/12 09:11:12;;;;;;;4.35;2.45;;;;;;;;;;4897860;29;20049;-77
2022/01/12 09:13:41;;;;;;;8.18;2.47;;;;;;;;;;4914015;29;20048;-77
2022/01/12 09:16:10;;;;;;;5.63;2.65;;;;;;;;;;4913105;29;20403;-77
2022/01/12 09:18:41;;;;;;;4.43;2.33;;;;;;;;;;4896241;29;20634;-77
2022/01/12 09:21:10;;;;;;;6.80;2.50;;;;;;;;;;4913021;29;20049;-77
2022/01/12 09:23:43;;;;;;;6.65;2.80;;;;;;;;;;4911112;29;20071;-77
2022/01/12 09:26:13;;;;;;;7.18;2.47;;;;;;;;;;4915087;29;20190;-77
2022/01/12 09:28:42;;;;;;;5.25;2.53;;;;;;;;;;4912476;29;20475;-77
2022/01/12 09:31:12;;;;;;;4.90;2.30;;;;;;;;;;4914151;29;20076;-77
2022/01/12 09:34:06;;;;;;;4.43;2.20;;;;;;;;;;4909272;29;20040;-77
2022/01/12 09:36:35;;;;;;;4.72;2.08;;;;;;;;;;4915930;29;20055;-77
2022/01/12 09:39:06;;;;;;;5.80;3.60;;;;;;;;;;4910201;29;20127;-77
2022/01/12 09:41:36;;;;;;;5.63;2.28;;;;;;;;;;4914137;29;20043;-77
2022/01/12 09:44:06;;;;;;;6.40;2.38;;;;;;;;;;4912630;29;20056;-77
2022/01/12 09:46:35;;;;;;;7.37;2.97;;;;;;;;;;4915454;29;20064;-77
2022/01/12 09:49:06;;;;;;;4.07;1.85;;;;;;;;;;4912292;29;20262;-77
2022/01/12 09:51:35;;;;;;;4.82;2.70;;;;;;;;;;4912391;29;20079;-77
2022/01/12 09:54:06;;;;;;;6.75;3.00;;;;;;;;;;4912597;29;20055;-77
2022/01/12 09:56:36;;;;;;;5.68;2.88;;;;;;;;;;4912616;29;20047;-77
2022/01/12 09:59:09;;;;;;;7.57;3.03;;;;;;;;;;4896063;29;20075;-77
2022/01/12 10:01:40;;;;;;;7.53;3.30;;;;;;;;;;4914209;29;20047;-77
2022/01/12 10:04:10;;;;;;;8.75;2.97;;;;;;;;;;4918767;29;20471;-77
2022/01/12 10:06:40;;;;;;;6.07;3.65;;;;;;;;;;4914454;29;20052;-77
2022/01/12 10:09:12;;;;;;;5.10;3.00;;;;;;;;;;4917366;29;20103;-77
2022/01/12 10:11:50;;;;;;;5.67;2.07;;;;;;;;;;4915065;29;20055;-77
2022/01/12 10:14:20;;;;;;;6.95;3.05;;;;;;;;;;4917197;29;20107;-77
2022/01/12 10:16:53;;;;;;;5.22;2.65;;;;;;;;;;4914121;29;20048;-77
2022/01/12 10:19:30;;;;;;;5.60;2.50;;;;;;;;;;4914376;29;20050;-78
2022/01/12 10:22:00;;;;;;;5.45;2.70;;;;;;;;;;4916101;29;20052;-78
2022/01/12 10:24:31;;;;;;;5.30;2.27;;;;;;;;;;4916445;29;20395;-79
2022/01/12 10:27:00;;;;;;;4.55;2.17;;;;;;;;;;4914927;29;20472;-76
2022/01/12 10:29:31;;;;;;;7.25;2.80;;;;;;;;;;4899344;29;20068;-75
2022/01/12 10:32:01;;;;;;;6.47;3.33;;;;;;;;;;4917855;29;20044;-76
2022/01/12 10:34:30;;;;;;;8.02;3.55;;;;;;;;;;4911548;29;20055;-76
2022/01/12 10:36:59;;;;;;;10.60;3.10;;;;;;;;;;4914088;29;20048;-74
2022/01/12 10:39:29;;;;;;;5.38;3.10;;;;;;;;;;4899512;29;20495;-77
2022/01/12 10:42:01;;;;;;;8.00;2.90;;;;;;;;;;4915984;29;20085;-77
2022/01/12 10:44:32;;;;;;;8.32;2.92;;;;;;;;;;4916515;29;20107;-77
2022/01/12 10:47:19;;;;;;;6.25;3.10;;;;;;;;;;4915936;29;20048;-74
2022/01/12 10:49:59;;;;;;;6.77;3.53;;;;;;;;;;4905714;29;20063;-76
2022/01/12 10:52:29;;;;;;;6.07;2.70;;;;;;;;;;4914545;29;20518;-76
2022/01/12 10:55:01;;;;;;;7.50;3.40;;;;;;;;;;4911754;29;20100;-76
2022/01/12 10:57:32;;;;;;;12.27;3.45;;;;;;;;;;4915145;29;20056;-77
2022/01/12 11:02:56;;;;;;;7.20;2.77;;;;;;;;;;4911682;29;20047;-77
2022/01/12 11:05:26;;;;;;;9.30;3.55;;;;;;;;;;4898176;29;20075;-78
2022/01/12 11:07:56;;;;;;;9.52;3.47;;;;;;;;;;4912480;29;20134;-77
2022/01/12 11:10:26;;;;;;;6.60;2.85;;;;;;;;;;4915520;29;20139;-78
2022/01/12 11:12:57;;;;;;;7.28;3.47;;;;;;;;;;4911925;29;20052;-78
2022/01/12 11:15:26;;;;;;;5.23;2.67;;;;;;;;;;4916036;29;20056;-75
2022/01/12 11:17:55;;;;;;;10.43;3.63;;;;;;;;;;4917207;29;20506;-80
2022/01/12 11:20:26;;;;;;;7.13;2.85;;;;;;;;;;4901701;29;20090;-80
2022/01/12 11:23:01;;;;;;;5.60;3.15;;;;;;;;;;4912995;29;20546;-79
2022/01/12 11:25:30;;;;;;;6.63;3.15;;;;;;;;;;4915834;29;20407;-78
2022/01/12 11:28:08;;;;;;;7.87;4.00;;;;;;;;;;4897239;29;20052;-78
2022/01/12 11:30:38;;;;;;;9.63;3.35;;;;;;;;;;4914224;29;20380;-78
2022/01/12 11:33:07;;;;;;;9.00;3.72;;;;;;;;;;4913917;29;20055;-78
2022/01/12 11:35:37;;;;;;;6.43;3.28;;;;;;;;;;4915069;29;20095;-77
2022/01/12 11:38:07;;;;;;;7.03;3.08;;;;;;;;;;4910186;29;20047;-78
2022/01/12 11:40:37;;;;;;;6.40;3.73;;;;;;;;;;4912005;29;20048;-78
2022/01/12 11:43:18;;;;;;;8.27;3.58;;;;;;;;;;4915617;29;20051;-78
2022/01/12 11:45:48;;;;;;;6.82;3.28;;;;;;;;;;4911490;29;20407;-78
2022/01/12 11:48:17;;;;;;;8.60;3.42;;;;;;;;;;4914614;29;20044;-78
2022/01/12 11:50:53;;;;;;;7.10;3.47;;;;;;;;;;4902726;29;20099;-78
2022/01/12 11:53:23;;;;;;;7.03;3.23;;;;;;;;;;4894805;29;20057;-78
2022/01/12 11:55:52;;;;;;;7.80;3.75;;;;;;;;;;4893593;29;20104;-78
2022/01/12 11:58:22;;;;;;;9.13;3.70;;;;;;;;;;4902143;29;20054;-79
2022/01/12 12:00:52;;;;;;;10.02;3.03;;;;;;;;;;4891905;29;20049;-79
2022/01/12 12:03:21;;;;;;;6.32;2.42;;;;;;;;;;4897012;29;20049;-82
2022/01/12 12:05:55;;;;;;;7.27;2.83;;;;;;;;;;4896727;29;20549;-79
2022/01/12 12:08:25;;;;;;;7.55;2.78;;;;;;;;;;4894791;29;20127;-80
2022/01/12 12:10:54;;;;;;;6.30;2.78;;;;;;;;;;4883485;29;20087;-79
2022/01/12 12:13:24;;;;;;;10.63;3.08;;;;;;;;;;4872372;29;20044;-80
2022/01/12 12:15:54;;;;;;;6.93;2.78;;;;;;;;;;4892995;29;20052;-77
2022/01/12 12:18:23;;;;;;;7.13;2.60;;;;;;;;;;4892845;29;20504;-78
2022/01/12 12:20:53;;;;;;;6.22;2.58;;;;;;;;;;4896361;29;20067;-80
2022/01/12 12:23:26;;;;;;;5.85;3.17;;;;;;;;;;4895573;29;20040;-79
2022/01/12 12:25:55;;;;;;;6.85;2.58;;;;;;;;;;4894983;29;20100;-79
2022/01/12 12:28:25;;;;;;;7.95;3.40;;;;;;;;;;4893013;29;20045;-77
2022/01/12 12:30:54;;;;;;;5.83;3.30;;;;;;;;;;4878756;29;20057;-78
2022/01/12 12:33:24;;;;;;;6.05;3.20;;;;;;;;;;4893631;29;20061;-78
2022/01/12 12:35:53;;;;;;;7.53;2.70;;;;;;;;;;4896193;29;20088;-78
2022/01/12 12:38:22;;;;;;;7.25;3.22;;;;;;;;;;4894909;29;20575;-78
2022/01/12 12:40:53;;;;;;;9.02;3.20;;;;;;;;;;4893942;29;20052;-79
2022/01/12 12:43:25;;;;;;;7.40;3.17;;;;;;;;;;4894296;29;20080;-78
2022/01/12 12:45:56;;;;;;;8.05;3.20;;;;;;;;;;4895798;29;20108;-79
2022/01/12 12:48:28;;;;;;;5.55;2.50;;;;;;;;;;4878575;29;20048;-77
2022/01/12 12:51:45;;;;;;;7.88;2.72;;;;;;;;;;4911377;29;20051;-78
2022/01/12 12:54:16;;;;;;;5.03;2.60;;;;;;;;;;4914640;29;20519;-78
2022/01/12 12:57:08;;;;;;;8.77;2.40;;;;;;;;;;4910515;29;20074;-78
2022/01/12 12:59:37;;;;;;;6.80;3.00;;;;;;;;;;4911538;29;20126;-78
2022/01/12 13:02:14;;;;;;;7.72;2.67;;;;;;;;;;4913326;29;20044;-78
2022/01/12 13:04:43;;;;;;;8.52;2.80;;;;;;;;;;4914095;29;20047;-78
2022/01/12 13:07:14;;;;;;;8.15;3.42;;;;;;;;;;4908839;29;21172;-78
2022/01/12 13:09:43;;;;;;;6.53;2.90;;;;;;;;;;4911886;29;20112;-78
2022/01/12 13:12:12;;;;;;;9.20;2.92;;;;;;;;;;4912411;29;20048;-77
2022/01/12 13:14:48;;;;;;;6.45;2.70;;;;;;;;;;4913706;29;20048;-76
2022/01/12 13:17:26;;;;;;;5.00;2.22;;;;;;;;;;4914946;29;20052;-76
2022/01/12 13:22:43;;;;;;;3.97;1.97;;;;;;;;;;4917162;29;20054;-75
2022/01/12 13:25:15;;;;;;;5.85;2.70;;;;;;;;;;4913345;29;20067;-76
2022/01/12 13:27:45;;;;;;;6.72;3.10;;;;;;;;;;4915338;29;20040;-76
2022/01/12 13:30:47;;;;;;;7.30;3.17;;;;;;;;;;4912514;29;20501;-75
2022/01/12 13:33:26;;;;;;;8.10;3.10;;;;;;;;;;4913082;29;20052;-76
2022/01/12 13:35:55;;;;;;;6.60;2.30;;;;;;;;;;4913196;29;20139;-76
2022/01/12 13:38:28;;;;;;;7.25;2.55;;;;;;;;;;4918209;29;20463;-76
2022/01/12 13:40:57;;;;;;;5.53;3.00;;;;;;;;;;4916276;29;20498;-76
2022/01/12 13:43:25;;;;;;;6.43;2.97;;;;;;;;;;4918752;29;20048;-76
2022/01/12 13:46:03;;;;;;;5.75;2.85;;;;;;;;;;4915436;29;20040;-76
2022/01/12 13:49:06;;;;;;;7.47;3.43;;;;;;;;;;4918754;29;20039;-76
2022/01/12 13:51:38;;;;;;;8.10;3.28;;;;;;;;;;4914872;29;20495;-76
2022/01/12 13:54:08;;;;;;;9.88;3.72;;;;;;;;;;4917631;29;20051;-76
2022/01/12 13:56:38;;;;;;;6.15;3.20;;;;;;;;;;4914353;29;20052;-77
2022/01/12 13:59:07;;;;;;;7.95;3.25;;;;;;;;;;4916617;29;20047;-76
2022/01/12 14:01:37;;;;;;;14.40;3.83;;;;;;;;;;4915406;29;20080;-76
2022/01/12 14:04:12;;;;;;;10.25;3.45;;;;;;;;;;4914883;29;20062;-76
2022/01/12 14:06:42;;;;;;;11.77;3.88;;;;;;;;;;4917085;29;20090;-76
2022/01/12 14:09:13;;;;;;;6.30;3.30;;;;;;;;;;4912862;29;20059;-76
2022/01/12 14:11:42;;;;;;;8.13;3.97;;;;;;;;;;4916630;29;20048;-76
2022/01/12 14:14:11;;;;;;;6.87;3.53;;;;;;;;;;4918269;29;20044;-76
2022/01/12 14:16:41;;;;;;;8.30;3.25;;;;;;;;;;4915013;29;20044;-76
2022/01/12 14:19:11;;;;;;;7.15;4.05;;;;;;;;;;4915103;29;20055;-76
2022/01/12 14:21:41;;;;;;;9.05;3.78;;;;;;;;;;4919571;29;20483;-76
2022/01/12 14:24:35;;;;;;;9.60;4.10;;;;;;;;;;4915620;29;20068;-76
2022/01/12 14:27:04;;;;;;;8.87;3.37;;;;;;;;;;4917317;29;20044;-76
2022/01/12 14:29:33;;;;;;;9.82;4.50;;;;;;;;;;4915974;29;20521;-76
2022/01/12 14:32:02;;;;;;;9.32;4.55;;;;;;;;;;4916197;29;20051;-76
2022/01/12 14:34:32;;;;;;;11.70;4.05;;;;;;;;;;4914021;29;20056;-76
2022/01/12 14:37:01;;;;;;;9.27;4.20;;;;;;;;;;4916238;29;20051;-76
2022/01/12 14:39:30;;;;;;;7.43;3.13;;;;;;;;;;4916078;29;20044;-76
2022/01/12 14:41:58;;;;;;;13.05;4.45;;;;;;;;;;4913255;29;20044;-76
2022/01/12 14:44:29;;;;;;;8.80;3.67;;;;;;;;;;4917291;29;20048;-76
2022/01/12 14:47:00;;;;;;;6.57;3.22;;;;;;;;;;4913037;29;20044;-76
2022/01/12 14:49:29;;;;;;;7.82;3.47;;;;;;;;;;4915719;29;20068;-75
2022/01/12 14:52:00;;;;;;;9.17;3.50;;;;;;;;;;4914405;29;20133;-76
2022/01/12 14:54:35;;;;;;;9.15;3.70;;;;;;;;;;4915526;29;20115;-76
2022/01/12 14:57:03;;;;;;;6.95;3.28;;;;;;;;;;4914929;29;20048;-76
2022/01/12 14:59:32;;;;;;;11.98;4.03;;;;;;;;;;4916076;29;20119;-76
2022/01/12 15:02:01;;;;;;;10.15;3.78;;;;;;;;;;4916787;29;20498;-76
2022/01/12 15:04:31;;;;;;;9.50;3.83;;;;;;;;;;4916573;29;20068;-76
2022/01/12 15:07:04;;;;;;;9.68;3.78;;;;;;;;;;4918384;29;20044;-76
2022/01/12 15:09:34;;;;;;;11.00;4.00;;;;;;;;;;4898361;29;20059;-76
2022/01/12 15:12:33;;;;;;;11.05;4.63;;;;;;;;;;4917420;29;20044;-76
2022/01/12 15:15:01;;;;;;;8.80;4.18;;;;;;;;;;4915402;29;20479;-76
2022/01/12 15:17:32;;;;;;;6.90;3.33;;;;;;;;;;4916140;29;20039;-76
2022/01/12 15:20:01;;;;;;;6.40;3.10;;;;;;;;;;4913934;29;20060;-76
2022/01/12 15:22:31;;;;;;;7.35;3.50;;;;;;;;;;4914994;29;20044;-76
2022/01/12 15:25:00;;;;;;;9.77;3.38;;;;;;;;;;4914671;29;20056;-75
2022/01/12 15:27:30;;;;;;;8.15;3.53;;;;;;;;;;4917901;29;20057;-78
2022/01/12 15:29:59;;;;;;;7.10;3.30;;;;;;;;;;4910888;29;20052;-75
2022/01/12 15:32:28;;;;;;;11.05;4.57;;;;;;;;;;4914104;29;20091;-75
2022/01/12 15:37:53;;;;;;;8.05;3.33;;;;;;;;;;4909521;29;20051;-76
2022/01/12 15:40:23;;;;;;;8.30;3.53;;;;;;;;;;4900156;29;20052;-74
2022/01/12 15:42:52;;;;;;;7.07;3.43;;;;;;;;;;4913092;29;20048;-78
2022/01/12 15:45:20;;;;;;;6.88;3.50;;;;;;;;;;4915331;29;20048;-77
2022/01/12 15:47:50;;;;;;;8.23;3.78;;;;;;;;;;4912191;29;20051;-75
2022/01/12 15:50:20;;;;;;;8.02;3.00;;;;;;;;;;4914739;29;20063;-77
2022/01/12 15:52:49;;;;;;;11.88;3.97;;;;;;;;;;4913147;29;20055;-75
2022/01/12 15:55:19;;;;;;;7.07;3.07;;;;;;;;;;4911435;29;20084;-73
2022/01/12 15:57:48;;;;;;;9.75;4.47;;;;;;;;;;4912908;29;20056;-76
2022/01/12 16:03:10;;;;;;;9.20;4.35;;;;;;;;;;4914147;29;20543;-74
2022/01/12 16:05:41;;;;;;;8.55;3.53;;;;;;;;;;4894895;29;20146;-75
2022/01/12 16:08:10;;;;;;;9.60;4.20;;;;;;;;;;4911390;29;20501;-76
2022/01/12 16:10:42;;;;;;;10.40;4.32;;;;;;;;;;4911981;29;20055;-73
2022/01/12 16:13:11;;;;;;;10.57;4.28;;;;;;;;;;4913790;29;20055;-74
2022/01/12 16:16:00;;;;;;;9.65;4.07;;;;;;;;;;4914144;29;20051;-76
2022/01/12 16:18:30;;;;;;;11.15;4.97;;;;;;;;;;4919297;29;20043;-73
2022/01/12 16:21:00;;;;;;;14.23;4.70;;;;;;;;;;4911093;29;20040;-75
2022/01/12 16:23:28;;;;;;;10.23;4.90;;;;;;;;;;4914812;29;20048;-76
2022/01/12 16:26:00;;;;;;;7.25;3.80;;;;;;;;;;4912607;29;20479;-75
2022/01/12 16:28:55;;;;;;;9.98;4.15;;;;;;;;;;4915034;29;20118;-75
2022/01/12 16:31:24;;;;;;;8.77;4.40;;;;;;;;;;4911855;29;20712;-75
2022/01/12 16:33:54;;;;;;;12.37;4.07;;;;;;;;;;4910003;29;20060;-74
2022/01/12 16:36:24;;;;;;;11.90;4.72;;;;;;;;;;4927057;29;20048;-82
2022/01/12 16:38:58;;;;;;;14.85;4.60;;;;;;;;;;4905419;29;20088;-80
2022/01/12 16:41:29;;;;;;;11.82;4.30;;;;;;;;;;4910794;29;20036;-77
2022/01/12 16:43:59;;;;;;;10.80;4.75;;;;;;;;;;4913191;29;20048;-79